ExpreSS Skopelitis — SW3130 — position and weather

sailwx.info

Track history (hours):
 
Tides and Currents Weather Stations Pressure Air Temp Water Temp Dewpoint Dewpoint Depression Visibility Wind Speed Wind Dir Waves Ship Positions

ExpreSS Skopelitis

Last reported at 2017-Dec-15 08:00 UTC. Time now 2017-Dec-15 08:30 UTC.
Position N 36°59' E 025°22'.

Length 45 m; draft 2.4 m.

Type: Passenger vessel. MMSI: 237029400.

Date/timePositionNaut miles runAvg speedWind from/ knotsBaromVisibWave heightAir tempDewpointWater temp
2017-Dec-15 08:00N 36°59' E 025°22'612.3
2017-Dec-15 07:31N 36°54' E 025°27'4 7.9
2017-Dec-15 07:01N 36°52' E 025°31'4 7.7
2017-Dec-15 06:30N 36°55' E 025°34'4 9.0
2017-Dec-15 06:01N 36°55' E 025°39'612.2
2017-Dec-15 05:31N 36°52' E 025°46'510.0
2017-Dec-15 05:00N 36°50' E 025°52'0 0.1
2017-Dec-15 04:29N 36°50' E 025°52'0 0.0
2017-Dec-15 03:58N 36°50' E 025°52'0 0.0
2017-Dec-15 02:30N 36°50' E 025°52'0 0.0
2017-Dec-15 00:56N 36°50' E 025°52'0 0.0
2017-Dec-15 00:30N 36°50' E 025°52'0 0.0
2017-Dec-14 18:27N 36°50' E 025°52'0 0.0
2017-Dec-14 18:00N 36°50' E 025°52'0 0.0
2017-Dec-14 17:25N 36°50' E 025°52'0 0.0
2017-Dec-14 16:58N 36°50' E 025°52'0 0.0
2017-Dec-14 16:30N 36°50' E 025°52'0 0.0
2017-Dec-14 15:56N 36°50' E 025°52'8 8.3
2017-Dec-14 15:01N 36°53' E 025°43'612.3
2017-Dec-14 14:30N 36°56' E 025°36'510.3
2017-Dec-14 14:00N 36°53' E 025°31'2 4.1
2017-Dec-14 13:29N 36°52' E 025°28'612.0
2017-Dec-14 13:00N 36°57' E 025°24'612.1
2017-Dec-14 12:30N 37°02' E 025°21'5 9.1
2017-Dec-14 12:01N 37°06' E 025°22'0 0.0
2017-Dec-14 11:30N 37°06' E 025°22'0 0.0
2017-Dec-14 11:00N 37°06' E 025°22'0 0.0
2017-Dec-14 10:30N 37°06' E 025°22'0 0.0
2017-Dec-14 10:00N 37°06' E 025°22'0 0.0
2017-Dec-14 09:31N 37°06' E 025°22'0 0.0
2017-Dec-14 09:01N 37°06' E 025°22'3 6.4
2017-Dec-14 08:31N 37°04' E 025°20'612.2
2017-Dec-14 08:01N 36°58' E 025°23'611.9
2017-Dec-14 07:30N 36°53' E 025°28'3 5.1
2017-Dec-14 07:01N 36°52' E 025°30'510.6
2017-Dec-14 06:30N 36°56' E 025°35'4 7.9
2017-Dec-14 06:00N 36°54' E 025°40'612.0
2017-Dec-14 05:31N 36°52' E 025°47'5 2.0
2017-Dec-14 03:06N 36°50' E 025°52'0 0.0
2017-Dec-14 02:55N 36°50' E 025°52'0 0.0
2017-Dec-14 02:14N 36°50' E 025°52'0 0.0
2017-Dec-14 02:01N 36°50' E 025°52'0 0.0
2017-Dec-14 01:29N 36°50' E 025°52'0 0.0
2017-Dec-14 01:01N 36°50' E 025°52'0 0.0
2017-Dec-14 00:30N 36°50' E 025°52'0 0.0
2017-Dec-13 23:53N 36°50' E 025°52'0 0.0
2017-Dec-13 23:29N 36°50' E 025°52'0 0.0
2017-Dec-13 23:01N 36°50' E 025°52'0 0.0
2017-Dec-13 21:07N 36°50' E 025°52'0 0.0
2017-Dec-13 20:53N 36°50' E 025°52'0 0.0
2017-Dec-13 20:30N 36°50' E 025°52'0 0.0
2017-Dec-13 19:48N 36°50' E 025°52'0 0.0
2017-Dec-13 18:46N 36°50' E 025°52'0 0.0
2017-Dec-13 18:26N 36°50' E 025°52'0 0.3
2017-Dec-13 18:00N 36°50' E 025°52'3 7.0
2017-Dec-13 17:31N 36°53' E 025°54'3 6.0
2017-Dec-13 17:00N 36°54' E 025°57'612.3
2017-Dec-13 16:30N 36°60' E 025°53'612.3
2017-Dec-13 16:01N 37°05' E 025°48'2 5.0
2017-Dec-13 15:31N 37°04' E 025°46'611.7
2017-Dec-13 15:01N 36°59' E 025°41'510.2
2017-Dec-13 14:31N 36°56' E 025°36'611.3
2017-Dec-13 14:01N 36°53' E 025°30'2 3.5
2017-Dec-13 13:31N 36°52' E 025°28'611.4
2017-Dec-13 13:01N 36°57' E 025°24'612.2
2017-Dec-13 12:30N 37°02' E 025°21'5 9.1
2017-Dec-13 12:00N 37°06' E 025°22'0 0.0
2017-Dec-13 11:31N 37°06' E 025°22'0 0.0
2017-Dec-13 11:01N 37°06' E 025°22'0 0.0
2017-Dec-13 10:31N 37°06' E 025°22'0 0.0
2017-Dec-13 10:01N 37°06' E 025°22'4 8.1
2017-Dec-13 09:31N 37°03' E 025°21'612.1
2017-Dec-13 09:01N 36°57' E 025°24'611.8
2017-Dec-13 08:30N 36°52' E 025°29'1 2.7
2017-Dec-13 08:01N 36°53' E 025°30'611.1
2017-Dec-13 07:31N 36°56' E 025°36'5 9.7
2017-Dec-13 07:00N 36°59' E 025°41'612.3
2017-Dec-13 06:31N 37°04' E 025°45'3 5.8
2017-Dec-13 06:01N 37°04' E 025°49'612.2
2017-Dec-13 05:30N 36°59' E 025°53'611.9
2017-Dec-13 05:00N 36°54' E 025°58'4 8.0
2017-Dec-13 04:31N 36°52' E 025°54'3 5.8
2017-Dec-13 04:01N 36°50' E 025°52'0 0.1
2017-Dec-13 03:28N 36°50' E 025°52'0 0.0
2017-Dec-13 02:22N 36°50' E 025°52'0 0.0
2017-Dec-13 01:26N 36°50' E 025°52'0 0.0
2017-Dec-12 15:45N 36°50' E 025°52'2 9.6
2017-Dec-12 15:31N 36°50' E 025°49'612.1
2017-Dec-12 15:01N 36°53' E 025°42'611.5
2017-Dec-12 14:31N 36°56' E 025°36'510.9
2017-Dec-12 14:00N 36°53' E 025°30'2 3.6
2017-Dec-12 13:31N 36°52' E 025°28'611.6
2017-Dec-12 13:01N 36°57' E 025°24'612.0
2017-Dec-12 12:30N 37°02' E 025°21'5 9.1
2017-Dec-12 12:01N 37°06' E 025°22'0 0.0
2017-Dec-12 11:30N 37°06' E 025°22'0 0.0
2017-Dec-12 11:00N 37°06' E 025°22'0 0.0
2017-Dec-12 10:31N 37°06' E 025°22'0 0.0
2017-Dec-12 10:01N 37°06' E 025°22'0 0.0
2017-Dec-12 09:30N 37°06' E 025°22'0 0.0
2017-Dec-12 09:01N 37°06' E 025°22'2 3.5
2017-Dec-12 08:31N 37°06' E 025°20'611.7
2017-Dec-12 08:01N 36°60' E 025°22'612.1
2017-Dec-12 07:31N 36°55' E 025°26'4 8.6
2017-Dec-12 07:01N 36°52' E 025°30'4 7.6
2017-Dec-12 06:31N 36°55' E 025°33'5 9.3
2017-Dec-12 06:00N 36°55' E 025°39'612.3
2017-Dec-12 05:31N 36°52' E 025°46'510.0
2017-Dec-12 05:00N 36°50' E 025°52'0 0.0
2017-Dec-12 02:56N 36°50' E 025°52'0 0.0
2017-Dec-12 02:30N 36°50' E 025°52'0 0.0
2017-Dec-12 01:53N 36°50' E 025°52'0 0.0
2017-Dec-12 01:29N 36°50' E 025°52'0 0.0
2017-Dec-12 00:58N 36°50' E 025°52'0 0.0
2017-Dec-12 00:24N 36°50' E 025°52'0 0.0
2017-Dec-12 00:00N 36°50' E 025°52'0 0.0
2017-Dec-11 23:30N 36°50' E 025°52'0 0.0
2017-Dec-11 23:00N 36°50' E 025°52'0 0.0
2017-Dec-11 22:30N 36°50' E 025°52'0 0.0
2017-Dec-11 21:59N 36°50' E 025°52'0 0.0
2017-Dec-11 21:10N 36°50' E 025°52'0 0.0
2017-Dec-11 20:02N 36°50' E 025°52'0 0.0
2017-Dec-11 19:58N 36°50' E 025°52'0 0.0
2017-Dec-11 19:24N 36°50' E 025°52'0 0.0
2017-Dec-11 18:38N 36°50' E 025°52'0 0.1
2017-Dec-11 18:23N 36°50' E 025°52'2 5.9
2017-Dec-11 18:00N 36°52' E 025°52'611.4
2017-Dec-11 17:30N 36°54' E 025°59'5 9.8
2017-Dec-11 17:00N 36°58' E 025°54'612.3
2017-Dec-11 16:30N 37°03' E 025°50'4 7.0
2017-Dec-11 16:00N 37°06' E 025°47'612.1
2017-Dec-11 15:30N 37°01' E 025°43'612.3
2017-Dec-11 15:00N 36°56' E 025°38'4 7.3
2017-Dec-11 14:30N 36°55' E 025°33'3 6.7
2017-Dec-11 14:00N 36°52' E 025°31'2 4.4
2017-Dec-11 13:30N 36°53' E 025°28'612.3
2017-Dec-11 13:00N 36°58' E 025°23'612.1
2017-Dec-11 12:30N 37°03' E 025°20'4 7.1
2017-Dec-11 12:00N 37°06' E 025°22'0 0.0
2017-Dec-11 11:29N 37°06' E 025°22'0 0.0
2017-Dec-11 11:00N 37°06' E 025°22'0 0.0
2017-Dec-11 10:30N 37°06' E 025°22'0 0.1
2017-Dec-11 10:00N 37°06' E 025°22'5 9.4
2017-Dec-11 09:30N 37°02' E 025°21'612.1
2017-Dec-11 09:00N 36°56' E 025°25'510.7
2017-Dec-11 08:30N 36°52' E 025°28'3 5.3
2017-Dec-11 08:00N 36°54' E 025°31'5 9.7
2017-Dec-11 07:30N 36°56' E 025°36'510.9
2017-Dec-11 07:00N 36°60' E 025°41'612.0
2017-Dec-11 06:30N 37°04' E 025°46'3 6.1
2017-Dec-11 06:00N 37°04' E 025°50'612.1
2017-Dec-11 05:30N 36°59' E 025°54'611.8
2017-Dec-11 05:00N 36°54' E 025°58'5 9.4
2017-Dec-11 04:30N 36°52' E 025°53'3 5.2
2017-Dec-11 04:00N 36°50' E 025°52'0 0.0
2017-Dec-11 03:29N 36°50' E 025°52'0 0.0
2017-Dec-10 20:03N 36°50' E 025°52'0 0.0
2017-Dec-10 19:33N 36°50' E 025°52'0 0.0
2017-Dec-10 16:32N 36°50' E 025°52'0 0.0
2017-Dec-10 16:18N 36°50' E 025°52'0 0.0
2017-Dec-10 15:50N 36°50' E 025°52'0 0.0
2017-Dec-10 15:30N 36°50' E 025°52'0 0.0
2017-Dec-10 14:39N 36°50' E 025°52'0 0.0
2017-Dec-10 14:28N 36°50' E 025°52'0 0.0
2017-Dec-10 13:57N 36°50' E 025°52'0 0.0
2017-Dec-10 13:30N 36°50' E 025°52'0 0.0
2017-Dec-10 13:00N 36°50' E 025°52'0 0.0
2017-Dec-10 12:29N 36°50' E 025°52'0 0.0
2017-Dec-10 11:58N 36°50' E 025°52'0 0.0
2017-Dec-10 11:21N 36°50' E 025°52'0 0.0
2017-Dec-10 10:59N 36°50' E 025°52'0 0.0
2017-Dec-10 10:30N 36°50' E 025°52'0 0.0
2017-Dec-10 10:00N 36°50' E 025°52'0 0.0
2017-Dec-10 09:29N 36°50' E 025°52'0 0.0
2017-Dec-10 08:56N 36°50' E 025°52'0 0.0
2017-Dec-10 08:30N 36°50' E 025°52'0 0.0
2017-Dec-10 07:55N 36°50' E 025°52'0 0.0
2017-Dec-10 07:22N 36°50' E 025°52'0 0.0
2017-Dec-10 06:56N 36°50' E 025°52'0 0.0
2017-Dec-10 06:27N 36°50' E 025°52'0 0.0
2017-Dec-10 05:51N 36°50' E 025°52'0 0.0
2017-Dec-10 05:24N 36°50' E 025°52'0 0.0
2017-Dec-10 04:58N 36°50' E 025°52'0 0.0
2017-Dec-10 04:16N 36°50' E 025°52'0 0.0
2017-Dec-10 03:54N 36°50' E 025°52'0 0.0
2017-Dec-10 02:44N 36°50' E 025°52'0 0.0
2017-Dec-10 02:17N 36°50' E 025°52'0 0.0
2017-Dec-09 18:19N 36°50' E 025°52'1 2.3
2017-Dec-09 18:00N 36°50' E 025°51'5 9.2
2017-Dec-09 17:30N 36°53' E 025°55'2 4.4
2017-Dec-09 17:00N 36°55' E 025°57'612.1
2017-Dec-09 16:30N 36°60' E 025°53'612.3
2017-Dec-09 16:00N 37°05' E 025°48'3 5.1
2017-Dec-09 15:30N 37°04' E 025°46'612.4
2017-Dec-09 15:00N 36°59' E 025°41'5 9.7
2017-Dec-09 14:30N 36°56' E 025°36'611.8
2017-Dec-09 14:00N 36°52' E 025°30'1 2.4
2017-Dec-09 13:30N 36°53' E 025°28'612.5
2017-Dec-09 13:00N 36°57' E 025°23'612.0
2017-Dec-09 12:30N 37°03' E 025°21'4 7.9
2017-Dec-09 12:00N 37°06' E 025°22'0 0.0
2017-Dec-09 11:30N 37°06' E 025°22'0 0.0
2017-Dec-09 11:00N 37°06' E 025°22'0 0.0
2017-Dec-09 10:30N 37°06' E 025°22'2 3.5
2017-Dec-09 10:01N 37°06' E 025°20'611.4
2017-Dec-09 09:30N 36°60' E 025°22'611.7
2017-Dec-09 09:00N 36°55' E 025°26'4 7.5
2017-Dec-09 08:30N 36°52' E 025°29'2 4.9
2017-Dec-09 08:00N 36°54' E 025°31'5 9.5
2017-Dec-09 07:30N 36°56' E 025°36'611.4
2017-Dec-09 07:00N 36°60' E 025°41'611.8
2017-Dec-09 06:30N 37°04' E 025°46'3 5.7
2017-Dec-09 06:00N 37°04' E 025°50'611.9
2017-Dec-09 05:30N 36°59' E 025°54'611.8
2017-Dec-09 05:00N 36°54' E 025°58'4 8.2
2017-Dec-09 04:30N 36°52' E 025°53'3 5.6
2017-Dec-09 04:00N 36°50' E 025°52'0 0.0
2017-Dec-09 02:04N 36°50' E 025°52'0 0.0
2017-Dec-09 01:54N 36°50' E 025°52'0 0.0
2017-Dec-09 01:30N 36°50' E 025°52'0 0.0
2017-Dec-09 00:22N 36°50' E 025°52'0 0.0
2017-Dec-09 00:00N 36°50' E 025°52'0 0.0
2017-Dec-08 23:26N 36°50' E 025°52'0 0.0
2017-Dec-08 22:58N 36°50' E 025°52'0 0.0
2017-Dec-08 22:30N 36°50' E 025°52'0 0.0
2017-Dec-08 21:06N 36°50' E 025°52'0 0.0
2017-Dec-08 19:42N 36°50' E 025°52'0 0.0
2017-Dec-08 15:59N 36°50' E 025°52'4 7.7
2017-Dec-08 15:30N 36°51' E 025°48'812.2
2017-Dec-08 14:52N 36°55' E 025°39'3 8.4
2017-Dec-08 14:30N 36°56' E 025°35'611.1
2017-Dec-08 14:00N 36°52' E 025°30'2 3.3
2017-Dec-08 13:30N 36°53' E 025°28'612.1
2017-Dec-08 13:00N 36°57' E 025°24'612.0
2017-Dec-08 12:30N 37°03' E 025°20'4 7.5
2017-Dec-08 12:00N 37°06' E 025°22'0 0.0
2017-Dec-08 11:30N 37°06' E 025°22'0 0.0
2017-Dec-08 11:00N 37°06' E 025°22'0 0.0
2017-Dec-08 10:30N 37°06' E 025°22'0 0.0
2017-Dec-08 10:00N 37°06' E 025°22'0 0.0
2017-Dec-08 09:30N 37°06' E 025°22'0 0.0
2017-Dec-08 09:00N 37°06' E 025°22'4 7.9
2017-Dec-08 08:30N 37°03' E 025°21'612.0
2017-Dec-08 08:00N 36°57' E 025°24'612.3
2017-Dec-08 07:30N 36°52' E 025°29'1 3.0
2017-Dec-08 07:00N 36°53' E 025°30'510.9
2017-Dec-08 06:30N 36°56' E 025°36'611.5
2017-Dec-08 06:00N 36°54' E 025°43'612.2
2017-Dec-08 05:30N 36°51' E 025°49'2 4.3
2017-Dec-08 05:00N 36°50' E 025°52'0 0.0
2017-Dec-08 04:30N 36°50' E 025°52'0 0.0
2017-Dec-08 04:00N 36°50' E 025°52'0 0.0
2017-Dec-08 03:30N 36°50' E 025°52'0 0.0
2017-Dec-08 03:00N 36°50' E 025°52'0 0.0
2017-Dec-08 02:30N 36°50' E 025°52'0 0.0
2017-Dec-08 02:00N 36°50' E 025°52'0 0.0
2017-Dec-08 01:30N 36°50' E 025°52'0 0.0
2017-Dec-08 01:00N 36°50' E 025°52'0 0.0
2017-Dec-08 00:30N 36°50' E 025°52'0 0.0
2017-Dec-08 00:00N 36°50' E 025°52'0 0.0
2017-Dec-07 23:23N 36°50' E 025°52'0 0.0
2017-Dec-07 22:59N 36°50' E 025°52'0 0.0
2017-Dec-07 22:30N 36°50' E 025°52'0 0.0
2017-Dec-07 22:00N 36°50' E 025°52'0 0.0
2017-Dec-07 21:30N 36°50' E 025°52'0 0.0
2017-Dec-07 21:00N 36°50' E 025°52'0 0.0
2017-Dec-07 20:28N 36°50' E 025°52'0 0.0
2017-Dec-07 19:59N 36°50' E 025°52'0 0.0
2017-Dec-07 19:29N 36°50' E 025°52'0 0.0
2017-Dec-07 19:00N 36°50' E 025°52'0 0.0
2017-Dec-07 18:25N 36°50' E 025°52'0 0.0
2017-Dec-07 17:59N 36°50' E 025°52'0 0.0
2017-Dec-07 17:29N 36°50' E 025°52'0 0.0
2017-Dec-07 16:53N 36°50' E 025°52'0 0.0
2017-Dec-07 16:24N 36°50' E 025°52'0 0.0
2017-Dec-07 15:46N 36°50' E 025°52'2 8.8
2017-Dec-07 15:30N 36°50' E 025°49'612.2
2017-Dec-07 15:00N 36°53' E 025°42'611.3
2017-Dec-07 14:30N 36°56' E 025°36'510.5
2017-Dec-07 14:00N 36°53' E 025°30'2 4.0
2017-Dec-07 13:30N 36°52' E 025°28'611.8
2017-Dec-07 13:01N 36°57' E 025°24'612.3
2017-Dec-07 12:30N 37°02' E 025°21'4 8.4
2017-Dec-07 12:00N 37°06' E 025°22'0 0.0
2017-Dec-07 11:30N 37°06' E 025°22'0 0.0
2017-Dec-07 11:00N 37°06' E 025°22'0 0.0
2017-Dec-07 10:30N 37°06' E 025°22'0 0.0
2017-Dec-07 10:00N 37°06' E 025°22'0 0.0
2017-Dec-07 09:30N 37°06' E 025°22'0 0.0
2017-Dec-07 09:00N 37°06' E 025°22'3 5.7
2017-Dec-07 08:31N 37°04' E 025°20'611.8
2017-Dec-07 08:00N 36°59' E 025°23'612.0
2017-Dec-07 07:30N 36°54' E 025°27'3 6.6
2017-Dec-07 07:00N 36°52' E 025°31'4 8.2
2017-Dec-07 06:30N 36°55' E 025°34'5 9.6
2017-Dec-07 06:00N 36°55' E 025°40'611.9
2017-Dec-07 05:30N 36°52' E 025°47'5 1.2
2017-Dec-07 01:47N 36°50' E 025°52'0 0.0
2017-Dec-07 01:03N 36°50' E 025°52'0 0.0
2017-Dec-07 00:46N 36°50' E 025°52'0 0.0
2017-Dec-07 00:19N 36°50' E 025°52'0 0.0
2017-Dec-06 23:59N 36°50' E 025°52'0 0.0
2017-Dec-06 23:30N 36°50' E 025°52'0 0.0
2017-Dec-06 22:55N 36°50' E 025°52'0 0.0
2017-Dec-06 22:30N 36°50' E 025°52'0 0.0
2017-Dec-06 22:00N 36°50' E 025°52'0 0.0
2017-Dec-06 21:28N 36°50' E 025°52'0 0.0
2017-Dec-06 20:58N 36°50' E 025°52'  
Track history (hours):
 
Tides and Currents Weather Stations Pressure Air Temp Water Temp Dewpoint Dewpoint Depression Visibility Wind Speed Wind Dir Waves Ship Positions

ExpreSS Skopelitis

Last reported at 2017-Dec-15 08:00 UTC. Time now 2017-Dec-15 08:30 UTC.
Position N 36°59' E 025°22'.

Length 45 m; draft 2.4 m.

Type: Passenger vessel. MMSI: 237029400.

Date/timePositionNaut miles runAvg speedWind from/ knotsBaromVisibWave heightAir tempDewpointWater temp
2017-Dec-15 08:00N 36°59' E 025°22'612.3
2017-Dec-15 07:31N 36°54' E 025°27'4 7.9
2017-Dec-15 07:01N 36°52' E 025°31'4 7.7
2017-Dec-15 06:30N 36°55' E 025°34'4 9.0
2017-Dec-15 06:01N 36°55' E 025°39'612.2
2017-Dec-15 05:31N 36°52' E 025°46'510.0
2017-Dec-15 05:00N 36°50' E 025°52'0 0.1
2017-Dec-15 04:29N 36°50' E 025°52'0 0.0
2017-Dec-15 03:58N 36°50' E 025°52'0 0.0
2017-Dec-15 02:30N 36°50' E 025°52'0 0.0
2017-Dec-15 00:56N 36°50' E 025°52'0 0.0
2017-Dec-15 00:30N 36°50' E 025°52'0 0.0
2017-Dec-14 18:27N 36°50' E 025°52'0 0.0
2017-Dec-14 18:00N 36°50' E 025°52'0 0.0
2017-Dec-14 17:25N 36°50' E 025°52'0 0.0
2017-Dec-14 16:58N 36°50' E 025°52'0 0.0
2017-Dec-14 16:30N 36°50' E 025°52'0 0.0
2017-Dec-14 15:56N 36°50' E 025°52'8 8.3
2017-Dec-14 15:01N 36°53' E 025°43'612.3
2017-Dec-14 14:30N 36°56' E 025°36'510.3
2017-Dec-14 14:00N 36°53' E 025°31'2 4.1
2017-Dec-14 13:29N 36°52' E 025°28'612.0
2017-Dec-14 13:00N 36°57' E 025°24'612.1
2017-Dec-14 12:30N 37°02' E 025°21'5 9.1
2017-Dec-14 12:01N 37°06' E 025°22'0 0.0
2017-Dec-14 11:30N 37°06' E 025°22'0 0.0
2017-Dec-14 11:00N 37°06' E 025°22'0 0.0
2017-Dec-14 10:30N 37°06' E 025°22'0 0.0
2017-Dec-14 10:00N 37°06' E 025°22'0 0.0
2017-Dec-14 09:31N 37°06' E 025°22'0 0.0
2017-Dec-14 09:01N 37°06' E 025°22'3 6.4
2017-Dec-14 08:31N 37°04' E 025°20'612.2
2017-Dec-14 08:01N 36°58' E 025°23'611.9
2017-Dec-14 07:30N 36°53' E 025°28'3 5.1
2017-Dec-14 07:01N 36°52' E 025°30'510.6
2017-Dec-14 06:30N 36°56' E 025°35'4 7.9
2017-Dec-14 06:00N 36°54' E 025°40'612.0
2017-Dec-14 05:31N 36°52' E 025°47'5 2.0
2017-Dec-14 03:06N 36°50' E 025°52'0 0.0
2017-Dec-14 02:55N 36°50' E 025°52'0 0.0
2017-Dec-14 02:14N 36°50' E 025°52'0 0.0
2017-Dec-14 02:01N 36°50' E 025°52'0 0.0
2017-Dec-14 01:29N 36°50' E 025°52'0 0.0
2017-Dec-14 01:01N 36°50' E 025°52'0 0.0
2017-Dec-14 00:30N 36°50' E 025°52'0 0.0
2017-Dec-13 23:53N 36°50' E 025°52'0 0.0
2017-Dec-13 23:29N 36°50' E 025°52'0 0.0
2017-Dec-13 23:01N 36°50' E 025°52'0 0.0
2017-Dec-13 21:07N 36°50' E 025°52'0 0.0
2017-Dec-13 20:53N 36°50' E 025°52'0 0.0
2017-Dec-13 20:30N 36°50' E 025°52'0 0.0
2017-Dec-13 19:48N 36°50' E 025°52'0 0.0
2017-Dec-13 18:46N 36°50' E 025°52'0 0.0
2017-Dec-13 18:26N 36°50' E 025°52'0 0.3
2017-Dec-13 18:00N 36°50' E 025°52'3 7.0
2017-Dec-13 17:31N 36°53' E 025°54'3 6.0
2017-Dec-13 17:00N 36°54' E 025°57'612.3
2017-Dec-13 16:30N 36°60' E 025°53'612.3
2017-Dec-13 16:01N 37°05' E 025°48'2 5.0
2017-Dec-13 15:31N 37°04' E 025°46'611.7
2017-Dec-13 15:01N 36°59' E 025°41'510.2
2017-Dec-13 14:31N 36°56' E 025°36'611.3
2017-Dec-13 14:01N 36°53' E 025°30'2 3.5
2017-Dec-13 13:31N 36°52' E 025°28'611.4
2017-Dec-13 13:01N 36°57' E 025°24'612.2
2017-Dec-13 12:30N 37°02' E 025°21'5 9.1
2017-Dec-13 12:00N 37°06' E 025°22'0 0.0
2017-Dec-13 11:31N 37°06' E 025°22'0 0.0
2017-Dec-13 11:01N 37°06' E 025°22'0 0.0
2017-Dec-13 10:31N 37°06' E 025°22'0 0.0
2017-Dec-13 10:01N 37°06' E 025°22'4 8.1
2017-Dec-13 09:31N 37°03' E 025°21'612.1
2017-Dec-13 09:01N 36°57' E 025°24'611.8
2017-Dec-13 08:30N 36°52' E 025°29'1 2.7
2017-Dec-13 08:01N 36°53' E 025°30'611.1
2017-Dec-13 07:31N 36°56' E 025°36'5 9.7
2017-Dec-13 07:00N 36°59' E 025°41'612.3
2017-Dec-13 06:31N 37°04' E 025°45'3 5.8
2017-Dec-13 06:01N 37°04' E 025°49'612.2
2017-Dec-13 05:30N 36°59' E 025°53'611.9
2017-Dec-13 05:00N 36°54' E 025°58'4 8.0
2017-Dec-13 04:31N 36°52' E 025°54'3 5.8
2017-Dec-13 04:01N 36°50' E 025°52'0 0.1
2017-Dec-13 03:28N 36°50' E 025°52'0 0.0
2017-Dec-13 02:22N 36°50' E 025°52'0 0.0
2017-Dec-13 01:26N 36°50' E 025°52'0 0.0
2017-Dec-12 15:45N 36°50' E 025°52'2 9.6
2017-Dec-12 15:31N 36°50' E 025°49'612.1
2017-Dec-12 15:01N 36°53' E 025°42'611.5
2017-Dec-12 14:31N 36°56' E 025°36'510.9
2017-Dec-12 14:00N 36°53' E 025°30'2 3.6
2017-Dec-12 13:31N 36°52' E 025°28'611.6
2017-Dec-12 13:01N 36°57' E 025°24'612.0
2017-Dec-12 12:30N 37°02' E 025°21'5 9.1
2017-Dec-12 12:01N 37°06' E 025°22'0 0.0
2017-Dec-12 11:30N 37°06' E 025°22'0 0.0
2017-Dec-12 11:00N 37°06' E 025°22'0 0.0
2017-Dec-12 10:31N 37°06' E 025°22'0 0.0
2017-Dec-12 10:01N 37°06' E 025°22'0 0.0
2017-Dec-12 09:30N 37°06' E 025°22'0 0.0
2017-Dec-12 09:01N 37°06' E 025°22'2 3.5
2017-Dec-12 08:31N 37°06' E 025°20'611.7
2017-Dec-12 08:01N 36°60' E 025°22'612.1
2017-Dec-12 07:31N 36°55' E 025°26'4 8.6
2017-Dec-12 07:01N 36°52' E 025°30'4 7.6
2017-Dec-12 06:31N 36°55' E 025°33'5 9.3
2017-Dec-12 06:00N 36°55' E 025°39'612.3
2017-Dec-12 05:31N 36°52' E 025°46'510.0
2017-Dec-12 05:00N 36°50' E 025°52'0 0.0
2017-Dec-12 02:56N 36°50' E 025°52'0 0.0
2017-Dec-12 02:30N 36°50' E 025°52'0 0.0
2017-Dec-12 01:53N 36°50' E 025°52'0 0.0
2017-Dec-12 01:29N 36°50' E 025°52'0 0.0
2017-Dec-12 00:58N 36°50' E 025°52'0 0.0
2017-Dec-12 00:24N 36°50' E 025°52'0 0.0
2017-Dec-12 00:00N 36°50' E 025°52'0 0.0
2017-Dec-11 23:30N 36°50' E 025°52'0 0.0
2017-Dec-11 23:00N 36°50' E 025°52'0 0.0
2017-Dec-11 22:30N 36°50' E 025°52'0 0.0
2017-Dec-11 21:59N 36°50' E 025°52'0 0.0
2017-Dec-11 21:10N 36°50' E 025°52'0 0.0
2017-Dec-11 20:02N 36°50' E 025°52'0 0.0
2017-Dec-11 19:58N 36°50' E 025°52'0 0.0
2017-Dec-11 19:24N 36°50' E 025°52'0 0.0
2017-Dec-11 18:38N 36°50' E 025°52'0 0.1
2017-Dec-11 18:23N 36°50' E 025°52'2 5.9
2017-Dec-11 18:00N 36°52' E 025°52'611.4
2017-Dec-11 17:30N 36°54' E 025°59'5 9.8
2017-Dec-11 17:00N 36°58' E 025°54'612.3
2017-Dec-11 16:30N 37°03' E 025°50'4 7.0
2017-Dec-11 16:00N 37°06' E 025°47'612.1
2017-Dec-11 15:30N 37°01' E 025°43'612.3
2017-Dec-11 15:00N 36°56' E 025°38'4 7.3
2017-Dec-11 14:30N 36°55' E 025°33'3 6.7
2017-Dec-11 14:00N 36°52' E 025°31'2 4.4
2017-Dec-11 13:30N 36°53' E 025°28'612.3
2017-Dec-11 13:00N 36°58' E 025°23'612.1
2017-Dec-11 12:30N 37°03' E 025°20'4 7.1
2017-Dec-11 12:00N 37°06' E 025°22'0 0.0
2017-Dec-11 11:29N 37°06' E 025°22'0 0.0
2017-Dec-11 11:00N 37°06' E 025°22'0 0.0
2017-Dec-11 10:30N 37°06' E 025°22'0 0.1
2017-Dec-11 10:00N 37°06' E 025°22'5 9.4
2017-Dec-11 09:30N 37°02' E 025°21'612.1
2017-Dec-11 09:00N 36°56' E 025°25'510.7
2017-Dec-11 08:30N 36°52' E 025°28'3 5.3
2017-Dec-11 08:00N 36°54' E 025°31'5 9.7
2017-Dec-11 07:30N 36°56' E 025°36'510.9
2017-Dec-11 07:00N 36°60' E 025°41'612.0
2017-Dec-11 06:30N 37°04' E 025°46'3 6.1
2017-Dec-11 06:00N 37°04' E 025°50'612.1
2017-Dec-11 05:30N 36°59' E 025°54'611.8
2017-Dec-11 05:00N 36°54' E 025°58'5 9.4
2017-Dec-11 04:30N 36°52' E 025°53'3 5.2
2017-Dec-11 04:00N 36°50' E 025°52'0 0.0
2017-Dec-11 03:29N 36°50' E 025°52'0 0.0
2017-Dec-10 20:03N 36°50' E 025°52'0 0.0
2017-Dec-10 19:33N 36°50' E 025°52'0 0.0
2017-Dec-10 16:32N 36°50' E 025°52'0 0.0
2017-Dec-10 16:18N 36°50' E 025°52'0 0.0
2017-Dec-10 15:50N 36°50' E 025°52'0 0.0
2017-Dec-10 15:30N 36°50' E 025°52'0 0.0
2017-Dec-10 14:39N 36°50' E 025°52'0 0.0
2017-Dec-10 14:28N 36°50' E 025°52'0 0.0
2017-Dec-10 13:57N 36°50' E 025°52'0 0.0
2017-Dec-10 13:30N 36°50' E 025°52'0 0.0
2017-Dec-10 13:00N 36°50' E 025°52'0 0.0
2017-Dec-10 12:29N 36°50' E 025°52'0 0.0
2017-Dec-10 11:58N 36°50' E 025°52'0 0.0
2017-Dec-10 11:21N 36°50' E 025°52'0 0.0
2017-Dec-10 10:59N 36°50' E 025°52'0 0.0
2017-Dec-10 10:30N 36°50' E 025°52'0 0.0
2017-Dec-10 10:00N 36°50' E 025°52'0 0.0
2017-Dec-10 09:29N 36°50' E 025°52'0 0.0
2017-Dec-10 08:56N 36°50' E 025°52'0 0.0
2017-Dec-10 08:30N 36°50' E 025°52'0 0.0
2017-Dec-10 07:55N 36°50' E 025°52'0 0.0
2017-Dec-10 07:22N 36°50' E 025°52'0 0.0
2017-Dec-10 06:56N 36°50' E 025°52'0 0.0
2017-Dec-10 06:27N 36°50' E 025°52'0 0.0
2017-Dec-10 05:51N 36°50' E 025°52'0 0.0
2017-Dec-10 05:24N 36°50' E 025°52'0 0.0
2017-Dec-10 04:58N 36°50' E 025°52'0 0.0
2017-Dec-10 04:16N 36°50' E 025°52'0 0.0
2017-Dec-10 03:54N 36°50' E 025°52'0 0.0
2017-Dec-10 02:44N 36°50' E 025°52'0 0.0
2017-Dec-10 02:17N 36°50' E 025°52'0 0.0
2017-Dec-09 18:19N 36°50' E 025°52'1 2.3
2017-Dec-09 18:00N 36°50' E 025°51'5 9.2
2017-Dec-09 17:30N 36°53' E 025°55'2 4.4
2017-Dec-09 17:00N 36°55' E 025°57'612.1
2017-Dec-09 16:30N 36°60' E 025°53'612.3
2017-Dec-09 16:00N 37°05' E 025°48'3 5.1
2017-Dec-09 15:30N 37°04' E 025°46'612.4
2017-Dec-09 15:00N 36°59' E 025°41'5 9.7
2017-Dec-09 14:30N 36°56' E 025°36'611.8
2017-Dec-09 14:00N 36°52' E 025°30'1 2.4
2017-Dec-09 13:30N 36°53' E 025°28'612.5
2017-Dec-09 13:00N 36°57' E 025°23'612.0
2017-Dec-09 12:30N 37°03' E 025°21'4 7.9
2017-Dec-09 12:00N 37°06' E 025°22'0 0.0
2017-Dec-09 11:30N 37°06' E 025°22'0 0.0
2017-Dec-09 11:00N 37°06' E 025°22'0 0.0
2017-Dec-09 10:30N 37°06' E 025°22'2 3.5
2017-Dec-09 10:01N 37°06' E 025°20'611.4
2017-Dec-09 09:30N 36°60' E 025°22'611.7
2017-Dec-09 09:00N 36°55' E 025°26'4 7.5
2017-Dec-09 08:30N 36°52' E 025°29'2 4.9
2017-Dec-09 08:00N 36°54' E 025°31'5 9.5
2017-Dec-09 07:30N 36°56' E 025°36'611.4
2017-Dec-09 07:00N 36°60' E 025°41'611.8
2017-Dec-09 06:30N 37°04' E 025°46'3 5.7
2017-Dec-09 06:00N 37°04' E 025°50'611.9
2017-Dec-09 05:30N 36°59' E 025°54'611.8
2017-Dec-09 05:00N 36°54' E 025°58'4 8.2
2017-Dec-09 04:30N 36°52' E 025°53'3 5.6
2017-Dec-09 04:00N 36°50' E 025°52'0 0.0
2017-Dec-09 02:04N 36°50' E 025°52'0 0.0
2017-Dec-09 01:54N 36°50' E 025°52'0 0.0
2017-Dec-09 01:30N 36°50' E 025°52'0 0.0
2017-Dec-09 00:22N 36°50' E 025°52'0 0.0
2017-Dec-09 00:00N 36°50' E 025°52'0 0.0
2017-Dec-08 23:26N 36°50' E 025°52'0 0.0
2017-Dec-08 22:58N 36°50' E 025°52'0 0.0
2017-Dec-08 22:30N 36°50' E 025°52'0 0.0
2017-Dec-08 21:06N 36°50' E 025°52'0 0.0
2017-Dec-08 19:42N 36°50' E 025°52'0 0.0
2017-Dec-08 15:59N 36°50' E 025°52'4 7.7
2017-Dec-08 15:30N 36°51' E 025°48'812.2
2017-Dec-08 14:52N 36°55' E 025°39'3 8.4
2017-Dec-08 14:30N 36°56' E 025°35'611.1
2017-Dec-08 14:00N 36°52' E 025°30'2 3.3
2017-Dec-08 13:30N 36°53' E 025°28'612.1
2017-Dec-08 13:00N 36°57' E 025°24'612.0
2017-Dec-08 12:30N 37°03' E 025°20'4 7.5
2017-Dec-08 12:00N 37°06' E 025°22'0 0.0
2017-Dec-08 11:30N 37°06' E 025°22'0 0.0
2017-Dec-08 11:00N 37°06' E 025°22'0 0.0
2017-Dec-08 10:30N 37°06' E 025°22'0 0.0
2017-Dec-08 10:00N 37°06' E 025°22'0 0.0
2017-Dec-08 09:30N 37°06' E 025°22'0 0.0
2017-Dec-08 09:00N 37°06' E 025°22'4 7.9
2017-Dec-08 08:30N 37°03' E 025°21'612.0
2017-Dec-08 08:00N 36°57' E 025°24'612.3
2017-Dec-08 07:30N 36°52' E 025°29'1 3.0
2017-Dec-08 07:00N 36°53' E 025°30'510.9
2017-Dec-08 06:30N 36°56' E 025°36'611.5
2017-Dec-08 06:00N 36°54' E 025°43'612.2
2017-Dec-08 05:30N 36°51' E 025°49'2 4.3
2017-Dec-08 05:00N 36°50' E 025°52'0 0.0
2017-Dec-08 04:30N 36°50' E 025°52'0 0.0
2017-Dec-08 04:00N 36°50' E 025°52'0 0.0
2017-Dec-08 03:30N 36°50' E 025°52'0 0.0
2017-Dec-08 03:00N 36°50' E 025°52'0 0.0
2017-Dec-08 02:30N 36°50' E 025°52'0 0.0
2017-Dec-08 02:00N 36°50' E 025°52'0 0.0
2017-Dec-08 01:30N 36°50' E 025°52'0 0.0
2017-Dec-08 01:00N 36°50' E 025°52'0 0.0
2017-Dec-08 00:30N 36°50' E 025°52'0 0.0
2017-Dec-08 00:00N 36°50' E 025°52'0 0.0
2017-Dec-07 23:23N 36°50' E 025°52'0 0.0
2017-Dec-07 22:59N 36°50' E 025°52'0 0.0
2017-Dec-07 22:30N 36°50' E 025°52'0 0.0
2017-Dec-07 22:00N 36°50' E 025°52'0 0.0
2017-Dec-07 21:30N 36°50' E 025°52'0 0.0
2017-Dec-07 21:00N 36°50' E 025°52'0 0.0
2017-Dec-07 20:28N 36°50' E 025°52'0 0.0
2017-Dec-07 19:59N 36°50' E 025°52'0 0.0
2017-Dec-07 19:29N 36°50' E 025°52'0 0.0
2017-Dec-07 19:00N 36°50' E 025°52'0 0.0
2017-Dec-07 18:25N 36°50' E 025°52'0 0.0
2017-Dec-07 17:59N 36°50' E 025°52'0 0.0
2017-Dec-07 17:29N 36°50' E 025°52'0 0.0
2017-Dec-07 16:53N 36°50' E 025°52'0 0.0
2017-Dec-07 16:24N 36°50' E 025°52'0 0.0
2017-Dec-07 15:46N 36°50' E 025°52'2 8.8
2017-Dec-07 15:30N 36°50' E 025°49'612.2
2017-Dec-07 15:00N 36°53' E 025°42'611.3
2017-Dec-07 14:30N 36°56' E 025°36'510.5
2017-Dec-07 14:00N 36°53' E 025°30'2 4.0
2017-Dec-07 13:30N 36°52' E 025°28'611.8
2017-Dec-07 13:01N 36°57' E 025°24'612.3
2017-Dec-07 12:30N 37°02' E 025°21'4 8.4
2017-Dec-07 12:00N 37°06' E 025°22'0 0.0
2017-Dec-07 11:30N 37°06' E 025°22'0 0.0
2017-Dec-07 11:00N 37°06' E 025°22'0 0.0
2017-Dec-07 10:30N 37°06' E 025°22'0 0.0
2017-Dec-07 10:00N 37°06' E 025°22'0 0.0
2017-Dec-07 09:30N 37°06' E 025°22'0 0.0
2017-Dec-07 09:00N 37°06' E 025°22'3 5.7
2017-Dec-07 08:31N 37°04' E 025°20'611.8
2017-Dec-07 08:00N 36°59' E 025°23'612.0
2017-Dec-07 07:30N 36°54' E 025°27'3 6.6
2017-Dec-07 07:00N 36°52' E 025°31'4 8.2
2017-Dec-07 06:30N 36°55' E 025°34'5 9.6
2017-Dec-07 06:00N 36°55' E 025°40'611.9
2017-Dec-07 05:30N 36°52' E 025°47'5 1.2
2017-Dec-07 01:47N 36°50' E 025°52'0 0.0
2017-Dec-07 01:03N 36°50' E 025°52'0 0.0
2017-Dec-07 00:46N 36°50' E 025°52'0 0.0
2017-Dec-07 00:19N 36°50' E 025°52'0 0.0
2017-Dec-06 23:59N 36°50' E 025°52'0 0.0
2017-Dec-06 23:30N 36°50' E 025°52'0 0.0
2017-Dec-06 22:55N 36°50' E 025°52'0 0.0
2017-Dec-06 22:30N 36°50' E 025°52'0 0.0
2017-Dec-06 22:00N 36°50' E 025°52'0 0.0
2017-Dec-06 21:28N 36°50' E 025°52'0 0.0
2017-Dec-06 20:58N 36°50' E 025°52'  

Dump ship's entire track history